Airfield :
LOGIN :

Register | Disclaimer

   EN    FR    IT 

 










Legend :    VFR   Marginal VFR   IFR   Intensive IFR   Very Intensive IFR
Visi :
Ceiling :
>= 8 km
>= 3000ft
5 to 8 km
1000 to 3000 ft
1500m to 5 km
500 to 1000 ft
800 to 1500m
200 to 500 ft
< 800m
< 200 ft
Symbols :   Thunderstorms  Fog  Heavy snow  Heavy precipitations  Wind > 20 kt
SIGMETs :     Misc.  Thunderstorms  Icing  Turbulence  Mountain Waves  Volcanic Ashes







- Airport Elevation : 370 ft


EBBE - Beauvechain AB

CURRENT METAR :
  • 180635Z 36003KT 4000 BR SCT030 10/09 Q1023 BLACKGRN GRN BECMG WHT

EXPIRED METARs :
  • 180555Z 36003KT 4000 BR SCT030 10/10 Q1023 GRN GRN BECMG WHT
  • 180525Z 01003KT 5000 BR FEW010 SCT025 11/10 Q1023 WHT WHT TEMPO GRN
  • 180538Z 01004KT 4000 BR SCT030 11/10 Q1023 GRN GRN BECMG WHT
  • 180455Z 01004KT 6000 FEW010 BKN022 12/11 Q1023 WHT WHT TEMPO GRN
  • 180425Z 36005KT 6000 FEW010 BKN022 12/11 Q1023 WHT WHT TEMPO GRN
  • 180355Z 35005KT 7000 BKN021 13/11 Q1023 WHT WHT

TAF TAF EBBE
Valid from the 18 at 07:00 until the 18 at 16:00 UTC


180541Z 1807/1816 03005KT 5000 BR FEW010 BKN022
TEMPO 1807/1809 4000 BR SCT007 BKN015
BECMG 1810/1812 9999 SCT025
No reported NOTAMs for that airfield.



MET'MAP, your aeronautical weather chart ! - Copyright ORBIFLY December 2007 - Disclaimer

ORBIFLY MET'MAP TEAM :

Programming & Development : Alexandra Zaïnal
Concept & Development : Baudouin d'Aumeries
Co-Development & Prog : Marc-Olivier Méhu
Technical & hardware support : Manuel Goepfert

Contact : metmap@orbifly.com




SOURCES & CREDITS :

   NOAA